Asheboro, North Carolina
Current Conditions -  °F | °C
As of 1:15 PM on Thursday 18 Dec 2014 (Local Time) from KHBI Reporting Station
Overcast Overcast  
Wind Chill: 46°   Ceiling: 9000
Heat Index: 48°   Visibility: 10mi
Dew Point: 22°   Wind: 5mph
Humidity: 35%   Direction: 290°WNW
Pressure: 30.13"   Gusts: NA
Location:  35.71°N, 79.81°W
Report Text: KHBI 181815Z AUTO 29004KT 10SM OVC090 09/M06 A3013 RMK AO2 T00901057
Loading
Personal Weather Stations






























Interactive Weather Map New forecast layout! Learn more

10-Day Weather Forecast

Advertisements
Track Severe Weather on mobile